sensor_id;sensor_type;location;lat;lon;timestamp;P1;durP1;ratioP1;P2;durP2;ratioP2
64907;SDS011;64365;-1.756;110.040;2023-03-01T00:01:00;26.83;;;17.35;;
64907;SDS011;64365;-1.756;110.040;2023-03-01T00:03:27;18.95;;;14.27;;
64907;SDS011;64365;-1.756;110.040;2023-03-01T00:05:54;22.02;;;15.02;;
64907;SDS011;64365;-1.756;110.040;2023-03-01T00:08:21;22.48;;;15.27;;
64907;SDS011;64365;-1.756;110.040;2023-03-01T00:10:47;26.48;;;17.77;;
64907;SDS011;64365;-1.756;110.040;2023-03-01T00:13:14;24.75;;;18.17;;
64907;SDS011;64365;-1.756;110.040;2023-03-01T00:15:42;23.73;;;16.98;;
64907;SDS011;64365;-1.756;110.040;2023-03-01T00:18:08;24.77;;;16.63;;
64907;SDS011;64365;-1.756;110.040;2023-03-01T00:20:35;20.13;;;14.85;;
64907;SDS011;64365;-1.756;110.040;2023-03-01T00:23:02;21.73;;;14.13;;
64907;SDS011;64365;-1.756;110.040;2023-03-01T00:25:28;19.95;;;13.93;;
64907;SDS011;64365;-1.756;110.040;2023-03-01T00:27:55;17.98;;;13.15;;
64907;SDS011;64365;-1.756;110.040;2023-03-01T00:30:21;18.67;;;14.20;;
64907;SDS011;64365;-1.756;110.040;2023-03-01T00:32:49;19.48;;;14.20;;
64907;SDS011;64365;-1.756;110.040;2023-03-01T00:35:16;18.95;;;13.73;;
64907;SDS011;64365;-1.756;110.040;2023-03-01T00:37:42;19.23;;;13.82;;
64907;SDS011;64365;-1.756;110.040;2023-03-01T00:40:09;21.05;;;14.15;;
64907;SDS011;64365;-1.756;110.040;2023-03-01T00:42:36;20.50;;;13.73;;
64907;SDS011;64365;-1.756;110.040;2023-03-01T00:45:03;20.60;;;14.52;;
64907;SDS011;64365;-1.756;110.040;2023-03-01T00:47:31;24.63;;;16.15;;
64907;SDS011;64365;-1.756;110.040;2023-03-01T00:50:00;24.13;;;15.95;;
64907;SDS011;64365;-1.756;110.040;2023-03-01T00:52:26;22.33;;;15.65;;
64907;SDS011;64365;-1.756;110.040;2023-03-01T00:54:53;28.15;;;18.23;;
64907;SDS011;64365;-1.756;110.040;2023-03-01T00:57:19;22.90;;;15.80;;
64907;SDS011;64365;-1.756;110.040;2023-03-01T00:59:46;24.67;;;16.05;;
64907;SDS011;64365;-1.756;110.040;2023-03-01T01:02:12;20.00;;;14.13;;
64907;SDS011;64365;-1.756;110.040;2023-03-01T01:04:39;26.92;;;17.10;;
64907;SDS011;64365;-1.756;110.040;2023-03-01T01:07:07;20.50;;;14.35;;
64907;SDS011;64365;-1.756;110.040;2023-03-01T01:09:34;20.33;;;13.88;;
64907;SDS011;64365;-1.756;110.040;2023-03-01T01:12:00;21.67;;;14.65;;
64907;SDS011;64365;-1.756;110.040;2023-03-01T01:14:27;21.33;;;15.40;;
64907;SDS011;64365;-1.756;110.040;2023-03-01T01:16:54;21.35;;;15.35;;
64907;SDS011;64365;-1.756;110.040;2023-03-01T01:19:20;20.83;;;14.55;;
64907;SDS011;64365;-1.756;110.040;2023-03-01T01:21:47;21.58;;;15.50;;
64907;SDS011;64365;-1.756;110.040;2023-03-01T01:24:15;22.60;;;15.80;;
64907;SDS011;64365;-1.756;110.040;2023-03-01T01:26:43;21.02;;;15.18;;
64907;SDS011;64365;-1.756;110.040;2023-03-01T01:29:11;21.67;;;15.30;;
64907;SDS011;64365;-1.756;110.040;2023-03-01T01:31:38;20.65;;;15.30;;
64907;SDS011;64365;-1.756;110.040;2023-03-01T01:34:07;20.55;;;15.65;;
64907;SDS011;64365;-1.756;110.040;2023-03-01T01:36:38;21.75;;;13.85;;
64907;SDS011;64365;-1.756;110.040;2023-03-01T01:39:05;23.23;;;15.57;;
64907;SDS011;64365;-1.756;110.040;2023-03-01T01:41:33;22.58;;;15.82;;
64907;SDS011;64365;-1.756;110.040;2023-03-01T01:44:10;26.08;;;17.88;;
64907;SDS011;64365;-1.756;110.040;2023-03-01T01:46:39;24.13;;;15.57;;
64907;SDS011;64365;-1.756;110.040;2023-03-01T01:49:11;20.80;;;14.40;;
64907;SDS011;64365;-1.756;110.040;2023-03-01T01:51:45;22.10;;;15.80;;
64907;SDS011;64365;-1.756;110.040;2023-03-01T01:54:15;23.13;;;14.98;;
64907;SDS011;64365;-1.756;110.040;2023-03-01T01:56:47;25.42;;;16.10;;
64907;SDS011;64365;-1.756;110.040;2023-03-01T02:01:49;22.48;;;16.35;;
64907;SDS011;64365;-1.756;110.040;2023-03-01T02:04:16;27.55;;;16.33;;
64907;SDS011;64365;-1.756;110.040;2023-03-01T02:06:44;22.48;;;15.55;;
64907;SDS011;64365;-1.756;110.040;2023-03-01T02:09:16;21.63;;;15.05;;
64907;SDS011;64365;-1.756;110.040;2023-03-01T02:11:46;21.50;;;15.82;;
64907;SDS011;64365;-1.756;110.040;2023-03-01T02:14:14;24.63;;;17.15;;
64907;SDS011;64365;-1.756;110.040;2023-03-01T02:16:41;22.17;;;16.00;;
64907;SDS011;64365;-1.756;110.040;2023-03-01T02:19:08;27.92;;;17.65;;
64907;SDS011;64365;-1.756;110.040;2023-03-01T02:21:45;25.00;;;16.33;;
64907;SDS011;64365;-1.756;110.040;2023-03-01T02:24:20;27.40;;;17.17;;
64907;SDS011;64365;-1.756;110.040;2023-03-01T02:26:57;21.25;;;14.93;;
64907;SDS011;64365;-1.756;110.040;2023-03-01T02:29:26;22.58;;;16.20;;
64907;SDS011;64365;-1.756;110.040;2023-03-01T02:31:54;21.25;;;15.40;;
64907;SDS011;64365;-1.756;110.040;2023-03-01T02:34:24;23.10;;;16.20;;
64907;SDS011;64365;-1.756;110.040;2023-03-01T02:36:52;21.92;;;15.70;;
64907;SDS011;64365;-1.756;110.040;2023-03-01T02:39:23;25.48;;;16.27;;
64907;SDS011;64365;-1.756;110.040;2023-03-01T02:41:53;22.38;;;16.02;;
64907;SDS011;64365;-1.756;110.040;2023-03-01T02:44:22;23.25;;;16.20;;
64907;SDS011;64365;-1.756;110.040;2023-03-01T02:46:51;21.00;;;14.35;;
64907;SDS011;64365;-1.756;110.040;2023-03-01T02:49:20;23.77;;;15.57;;
64907;SDS011;64365;-1.756;110.040;2023-03-01T02:51:52;21.20;;;15.38;;
64907;SDS011;64365;-1.756;110.040;2023-03-01T02:54:39;20.92;;;14.60;;
64907;SDS011;64365;-1.756;110.040;2023-03-01T02:57:10;21.45;;;15.57;;
64907;SDS011;64365;-1.756;110.040;2023-03-01T02:59:37;22.52;;;15.13;;
64907;SDS011;64365;-1.756;110.040;2023-03-01T03:02:07;23.45;;;16.20;;
64907;SDS011;64365;-1.756;110.040;2023-03-01T03:04:34;23.50;;;15.43;;
64907;SDS011;64365;-1.756;110.040;2023-03-01T03:07:01;25.83;;;16.83;;
64907;SDS011;64365;-1.756;110.040;2023-03-01T03:09:27;22.90;;;15.68;;
64907;SDS011;64365;-1.756;110.040;2023-03-01T03:11:54;21.88;;;15.15;;
64907;SDS011;64365;-1.756;110.040;2023-03-01T03:14:20;21.95;;;15.30;;
64907;SDS011;64365;-1.756;110.040;2023-03-01T03:16:48;22.23;;;14.95;;
64907;SDS011;64365;-1.756;110.040;2023-03-01T03:19:17;22.98;;;14.95;;
64907;SDS011;64365;-1.756;110.040;2023-03-01T03:21:44;24.10;;;15.32;;
64907;SDS011;64365;-1.756;110.040;2023-03-01T03:24:11;18.55;;;14.88;;
64907;SDS011;64365;-1.756;110.040;2023-03-01T03:26:38;21.70;;;14.93;;
64907;SDS011;64365;-1.756;110.040;2023-03-01T03:29:04;20.63;;;13.60;;
64907;SDS011;64365;-1.756;110.040;2023-03-01T03:31:31;24.05;;;14.77;;
64907;SDS011;64365;-1.756;110.040;2023-03-01T03:33:57;22.98;;;15.80;;
64907;SDS011;64365;-1.756;110.040;2023-03-01T03:36:26;21.40;;;14.90;;
64907;SDS011;64365;-1.756;110.040;2023-03-01T03:38:52;21.38;;;15.20;;
64907;SDS011;64365;-1.756;110.040;2023-03-01T03:41:19;22.42;;;15.40;;
64907;SDS011;64365;-1.756;110.040;2023-03-01T03:43:45;19.42;;;14.23;;
64907;SDS011;64365;-1.756;110.040;2023-03-01T03:46:12;20.70;;;14.63;;
64907;SDS011;64365;-1.756;110.040;2023-03-01T03:48:39;23.77;;;16.60;;
64907;SDS011;64365;-1.756;110.040;2023-03-01T03:51:09;20.60;;;14.98;;
64907;SDS011;64365;-1.756;110.040;2023-03-01T03:53:38;18.10;;;13.60;;
64907;SDS011;64365;-1.756;110.040;2023-03-01T03:56:05;22.08;;;15.02;;
64907;SDS011;64365;-1.756;110.040;2023-03-01T03:58:32;20.42;;;15.00;;
64907;SDS011;64365;-1.756;110.040;2023-03-01T04:00:59;22.58;;;14.98;;
64907;SDS011;64365;-1.756;110.040;2023-03-01T04:03:27;19.98;;;14.52;;
64907;SDS011;64365;-1.756;110.040;2023-03-01T04:05:56;22.70;;;14.82;;
64907;SDS011;64365;-1.756;110.040;2023-03-01T04:08:24;24.48;;;14.75;;
64907;SDS011;64365;-1.756;110.040;2023-03-01T04:10:55;24.40;;;16.05;;
64907;SDS011;64365;-1.756;110.040;2023-03-01T04:13:24;20.20;;;14.55;;
64907;SDS011;64365;-1.756;110.040;2023-03-01T04:15:51;20.90;;;15.77;;
64907;SDS011;64365;-1.756;110.040;2023-03-01T04:18:19;20.60;;;14.02;;
64907;SDS011;64365;-1.756;110.040;2023-03-01T04:20:47;22.05;;;15.23;;
64907;SDS011;64365;-1.756;110.040;2023-03-01T04:23:14;20.73;;;14.45;;
64907;SDS011;64365;-1.756;110.040;2023-03-01T04:25:45;22.80;;;14.93;;
64907;SDS011;64365;-1.756;110.040;2023-03-01T04:28:20;20.85;;;14.38;;
64907;SDS011;64365;-1.756;110.040;2023-03-01T04:30:47;19.10;;;13.85;;
64907;SDS011;64365;-1.756;110.040;2023-03-01T04:33:13;20.10;;;15.05;;
64907;SDS011;64365;-1.756;110.040;2023-03-01T04:35:40;19.48;;;14.95;;
64907;SDS011;64365;-1.756;110.040;2023-03-01T04:38:07;21.23;;;14.55;;
64907;SDS011;64365;-1.756;110.040;2023-03-01T04:40:34;21.35;;;15.05;;
64907;SDS011;64365;-1.756;110.040;2023-03-01T04:43:02;22.27;;;15.27;;
64907;SDS011;64365;-1.756;110.040;2023-03-01T04:45:30;23.42;;;14.43;;
64907;SDS011;64365;-1.756;110.040;2023-03-01T04:47:59;20.50;;;15.15;;
64907;SDS011;64365;-1.756;110.040;2023-03-01T04:50:26;23.42;;;15.32;;
64907;SDS011;64365;-1.756;110.040;2023-03-01T04:52:53;25.15;;;14.18;;
64907;SDS011;64365;-1.756;110.040;2023-03-01T04:55:19;22.35;;;14.75;;
64907;SDS011;64365;-1.756;110.040;2023-03-01T04:57:46;21.63;;;14.30;;
64907;SDS011;64365;-1.756;110.040;2023-03-01T05:00:14;23.65;;;14.82;;
64907;SDS011;64365;-1.756;110.040;2023-03-01T05:02:48;35.30;;;14.50;;
64907;SDS011;64365;-1.756;110.040;2023-03-01T05:05:18;22.38;;;14.18;;
64907;SDS011;64365;-1.756;110.040;2023-03-01T05:07:46;22.15;;;13.50;;
64907;SDS011;64365;-1.756;110.040;2023-03-01T05:10:14;24.80;;;14.73;;
64907;SDS011;64365;-1.756;110.040;2023-03-01T05:12:40;19.67;;;13.93;;
64907;SDS011;64365;-1.756;110.040;2023-03-01T05:15:07;21.40;;;13.15;;
64907;SDS011;64365;-1.756;110.040;2023-03-01T05:17:34;17.58;;;12.77;;
64907;SDS011;64365;-1.756;110.040;2023-03-01T05:20:03;20.00;;;13.38;;
64907;SDS011;64365;-1.756;110.040;2023-03-01T05:22:33;17.98;;;13.07;;
64907;SDS011;64365;-1.756;110.040;2023-03-01T05:25:00;21.25;;;13.32;;
64907;SDS011;64365;-1.756;110.040;2023-03-01T05:27:26;20.52;;;13.55;;
64907;SDS011;64365;-1.756;110.040;2023-03-01T05:29:54;20.90;;;14.13;;
64907;SDS011;64365;-1.756;110.040;2023-03-01T05:32:21;19.85;;;13.68;;
64907;SDS011;64365;-1.756;110.040;2023-03-01T05:34:47;20.70;;;14.05;;
64907;SDS011;64365;-1.756;110.040;2023-03-01T05:37:15;19.08;;;12.95;;
64907;SDS011;64365;-1.756;110.040;2023-03-01T05:39:42;20.42;;;13.68;;
64907;SDS011;64365;-1.756;110.040;2023-03-01T05:42:10;20.35;;;13.10;;
64907;SDS011;64365;-1.756;110.040;2023-03-01T05:44:37;21.77;;;13.52;;
64907;SDS011;64365;-1.756;110.040;2023-03-01T05:47:04;21.83;;;14.13;;
64907;SDS011;64365;-1.756;110.040;2023-03-01T05:49:31;19.55;;;13.70;;
64907;SDS011;64365;-1.756;110.040;2023-03-01T05:51:58;22.90;;;13.95;;
64907;SDS011;64365;-1.756;110.040;2023-03-01T05:54:26;23.05;;;14.63;;
64907;SDS011;64365;-1.756;110.040;2023-03-01T05:56:52;19.00;;;12.80;;
64907;SDS011;64365;-1.756;110.040;2023-03-01T05:59:19;20.80;;;13.63;;
64907;SDS011;64365;-1.756;110.040;2023-03-01T06:01:46;21.15;;;14.07;;
64907;SDS011;64365;-1.756;110.040;2023-03-01T06:04:12;22.58;;;13.32;;
64907;SDS011;64365;-1.756;110.040;2023-03-01T06:06:39;23.73;;;13.23;;
64907;SDS011;64365;-1.756;110.040;2023-03-01T06:09:05;22.55;;;13.52;;
64907;SDS011;64365;-1.756;110.040;2023-03-01T06:11:36;20.23;;;12.73;;
64907;SDS011;64365;-1.756;110.040;2023-03-01T06:14:03;21.30;;;11.90;;
64907;SDS011;64365;-1.756;110.040;2023-03-01T06:16:31;20.33;;;14.32;;
64907;SDS011;64365;-1.756;110.040;2023-03-01T06:18:57;20.27;;;14.60;;
64907;SDS011;64365;-1.756;110.040;2023-03-01T06:21:24;20.17;;;13.93;;
64907;SDS011;64365;-1.756;110.040;2023-03-01T06:23:51;24.45;;;14.35;;
64907;SDS011;64365;-1.756;110.040;2023-03-01T06:26:17;20.80;;;14.90;;
64907;SDS011;64365;-1.756;110.040;2023-03-01T06:28:46;24.65;;;15.10;;
64907;SDS011;64365;-1.756;110.040;2023-03-01T06:31:12;21.52;;;14.90;;
64907;SDS011;64365;-1.756;110.040;2023-03-01T06:33:39;22.77;;;15.25;;
64907;SDS011;64365;-1.756;110.040;2023-03-01T06:36:06;28.95;;;17.95;;
64907;SDS011;64365;-1.756;110.040;2023-03-01T06:38:34;27.30;;;17.10;;
64907;SDS011;64365;-1.756;110.040;2023-03-01T06:41:01;23.02;;;14.90;;
64907;SDS011;64365;-1.756;110.040;2023-03-01T06:43:27;26.63;;;17.48;;
64907;SDS011;64365;-1.756;110.040;2023-03-01T06:45:55;23.20;;;15.13;;
64907;SDS011;64365;-1.756;110.040;2023-03-01T06:48:22;30.85;;;17.08;;
64907;SDS011;64365;-1.756;110.040;2023-03-01T06:50:48;27.33;;;18.38;;
64907;SDS011;64365;-1.756;110.040;2023-03-01T06:53:15;27.70;;;17.55;;
64907;SDS011;64365;-1.756;110.040;2023-03-01T06:55:41;30.95;;;17.02;;
64907;SDS011;64365;-1.756;110.040;2023-03-01T06:58:08;28.58;;;16.17;;
64907;SDS011;64365;-1.756;110.040;2023-03-01T07:00:36;28.63;;;18.52;;
64907;SDS011;64365;-1.756;110.040;2023-03-01T07:03:04;28.55;;;18.10;;
64907;SDS011;64365;-1.756;110.040;2023-03-01T07:05:30;27.67;;;18.05;;
64907;SDS011;64365;-1.756;110.040;2023-03-01T07:07:57;28.27;;;20.40;;
64907;SDS011;64365;-1.756;110.040;2023-03-01T07:10:23;31.85;;;20.27;;
64907;SDS011;64365;-1.756;110.040;2023-03-01T07:12:50;34.20;;;21.08;;
64907;SDS011;64365;-1.756;110.040;2023-03-01T07:15:20;32.88;;;20.52;;
64907;SDS011;64365;-1.756;110.040;2023-03-01T07:17:47;26.92;;;17.90;;
64907;SDS011;64365;-1.756;110.040;2023-03-01T07:20:17;29.17;;;17.88;;
64907;SDS011;64365;-1.756;110.040;2023-03-01T07:22:47;30.38;;;18.95;;
64907;SDS011;64365;-1.756;110.040;2023-03-01T07:25:14;29.75;;;17.65;;
64907;SDS011;64365;-1.756;110.040;2023-03-01T07:27:40;23.90;;;16.42;;
64907;SDS011;64365;-1.756;110.040;2023-03-01T07:30:07;30.65;;;16.67;;
64907;SDS011;64365;-1.756;110.040;2023-03-01T07:32:35;26.00;;;15.63;;
64907;SDS011;64365;-1.756;110.040;2023-03-01T07:35:02;25.58;;;17.55;;
64907;SDS011;64365;-1.756;110.040;2023-03-01T07:37:30;27.45;;;17.52;;
64907;SDS011;64365;-1.756;110.040;2023-03-01T07:39:56;25.45;;;16.83;;
64907;SDS011;64365;-1.756;110.040;2023-03-01T07:42:23;24.10;;;15.38;;
64907;SDS011;64365;-1.756;110.040;2023-03-01T07:44:49;26.75;;;17.25;;
64907;SDS011;64365;-1.756;110.040;2023-03-01T07:47:16;26.55;;;18.10;;
64907;SDS011;64365;-1.756;110.040;2023-03-01T07:49:42;27.90;;;17.70;;
64907;SDS011;64365;-1.756;110.040;2023-03-01T07:52:09;28.75;;;18.60;;
64907;SDS011;64365;-1.756;110.040;2023-03-01T07:54:38;36.47;;;21.98;;
64907;SDS011;64365;-1.756;110.040;2023-03-01T07:57:05;32.88;;;20.25;;
64907;SDS011;64365;-1.756;110.040;2023-03-01T07:59:32;38.83;;;21.67;;
64907;SDS011;64365;-1.756;110.040;2023-03-01T08:01:58;32.22;;;19.60;;
64907;SDS011;64365;-1.756;110.040;2023-03-01T08:04:25;31.45;;;19.80;;
64907;SDS011;64365;-1.756;110.040;2023-03-01T08:06:52;34.22;;;21.45;;
64907;SDS011;64365;-1.756;110.040;2023-03-01T08:09:18;43.70;;;27.90;;
64907;SDS011;64365;-1.756;110.040;2023-03-01T08:11:46;36.03;;;23.20;;
64907;SDS011;64365;-1.756;110.040;2023-03-01T08:14:13;35.88;;;22.80;;
64907;SDS011;64365;-1.756;110.040;2023-03-01T08:16:39;27.60;;;19.80;;
64907;SDS011;64365;-1.756;110.040;2023-03-01T08:19:06;38.28;;;21.63;;
64907;SDS011;64365;-1.756;110.040;2023-03-01T08:21:33;36.47;;;18.73;;
64907;SDS011;64365;-1.756;110.040;2023-03-01T08:24:00;32.50;;;20.90;;
64907;SDS011;64365;-1.756;110.040;2023-03-01T08:26:27;35.50;;;21.13;;
64907;SDS011;64365;-1.756;110.040;2023-03-01T08:28:55;38.63;;;24.15;;
64907;SDS011;64365;-1.756;110.040;2023-03-01T08:31:23;70.85;;;45.63;;
64907;SDS011;64365;-1.756;110.040;2023-03-01T08:33:52;47.47;;;29.27;;
64907;SDS011;64365;-1.756;110.040;2023-03-01T08:36:21;23.73;;;16.27;;
64907;SDS011;64365;-1.756;110.040;2023-03-01T08:38:49;20.67;;;15.15;;
64907;SDS011;64365;-1.756;110.040;2023-03-01T08:41:15;20.45;;;12.60;;
64907;SDS011;64365;-1.756;110.040;2023-03-01T08:43:42;32.15;;;23.00;;
64907;SDS011;64365;-1.756;110.040;2023-03-01T08:46:11;24.88;;;16.85;;
64907;SDS011;64365;-1.756;110.040;2023-03-01T08:48:38;21.60;;;14.95;;
64907;SDS011;64365;-1.756;110.040;2023-03-01T08:51:09;17.92;;;12.65;;
64907;SDS011;64365;-1.756;110.040;2023-03-01T08:53:38;19.90;;;13.27;;
64907;SDS011;64365;-1.756;110.040;2023-03-01T08:56:08;21.88;;;15.25;;
64907;SDS011;64365;-1.756;110.040;2023-03-01T08:58:35;23.23;;;14.20;;
64907;SDS011;64365;-1.756;110.040;2023-03-01T09:01:06;21.13;;;14.73;;
64907;SDS011;64365;-1.756;110.040;2023-03-01T09:03:35;19.75;;;14.00;;
64907;SDS011;64365;-1.756;110.040;2023-03-01T09:06:02;17.70;;;12.93;;
64907;SDS011;64365;-1.756;110.040;2023-03-01T09:08:30;18.45;;;13.23;;
64907;SDS011;64365;-1.756;110.040;2023-03-01T09:11:00;15.82;;;12.27;;
64907;SDS011;64365;-1.756;110.040;2023-03-01T09:13:27;17.23;;;12.00;;
64907;SDS011;64365;-1.756;110.040;2023-03-01T09:15:56;15.82;;;12.07;;
64907;SDS011;64365;-1.756;110.040;2023-03-01T09:18:22;17.00;;;13.90;;
64907;SDS011;64365;-1.756;110.040;2023-03-01T09:20:51;19.58;;;13.55;;
64907;SDS011;64365;-1.756;110.040;2023-03-01T09:23:19;20.55;;;13.80;;
64907;SDS011;64365;-1.756;110.040;2023-03-01T09:25:46;22.63;;;16.65;;
64907;SDS011;64365;-1.756;110.040;2023-03-01T09:28:13;12.35;;;9.73;;
64907;SDS011;64365;-1.756;110.040;2023-03-01T09:30:40;22.08;;;16.23;;
64907;SDS011;64365;-1.756;110.040;2023-03-01T09:33:06;16.38;;;11.90;;
64907;SDS011;64365;-1.756;110.040;2023-03-01T09:35:39;15.87;;;11.97;;
64907;SDS011;64365;-1.756;110.040;2023-03-01T09:38:15;32.65;;;18.80;;
64907;SDS011;64365;-1.756;110.040;2023-03-01T09:40:45;20.95;;;14.75;;
64907;SDS011;64365;-1.756;110.040;2023-03-01T09:43:15;26.15;;;17.15;;
64907;SDS011;64365;-1.756;110.040;2023-03-01T09:45:49;25.73;;;17.15;;
64907;SDS011;64365;-1.756;110.040;2023-03-01T09:48:20;20.48;;;13.63;;
64907;SDS011;64365;-1.756;110.040;2023-03-01T09:50:50;17.17;;;11.65;;
64907;SDS011;64365;-1.756;110.040;2023-03-01T09:53:19;21.02;;;14.02;;
64907;SDS011;64365;-1.756;110.040;2023-03-01T09:55:49;25.50;;;17.73;;
64907;SDS011;64365;-1.756;110.040;2023-03-01T09:58:29;30.00;;;20.88;;
64907;SDS011;64365;-1.756;110.040;2023-03-01T10:01:08;23.63;;;14.80;;
64907;SDS011;64365;-1.756;110.040;2023-03-01T10:03:51;26.45;;;20.10;;
64907;SDS011;64365;-1.756;110.040;2023-03-01T10:06:27;13.70;;;10.18;;
64907;SDS011;64365;-1.756;110.040;2023-03-01T10:08:56;17.02;;;12.48;;
64907;SDS011;64365;-1.756;110.040;2023-03-01T10:11:26;16.98;;;10.20;;
64907;SDS011;64365;-1.756;110.040;2023-03-01T10:13:58;12.90;;;9.40;;
64907;SDS011;64365;-1.756;110.040;2023-03-01T10:16:32;16.00;;;10.68;;
64907;SDS011;64365;-1.756;110.040;2023-03-01T10:19:05;14.93;;;9.82;;
64907;SDS011;64365;-1.756;110.040;2023-03-01T10:21:38;14.07;;;8.73;;
64907;SDS011;64365;-1.756;110.040;2023-03-01T10:24:12;15.77;;;10.90;;
64907;SDS011;64365;-1.756;110.040;2023-03-01T10:26:45;12.25;;;10.30;;
64907;SDS011;64365;-1.756;110.040;2023-03-01T10:29:16;13.45;;;8.70;;
64907;SDS011;64365;-1.756;110.040;2023-03-01T10:31:46;12.23;;;8.57;;
64907;SDS011;64365;-1.756;110.040;2023-03-01T10:34:16;12.30;;;8.48;;
64907;SDS011;64365;-1.756;110.040;2023-03-01T10:36:47;9.05;;;7.13;;
64907;SDS011;64365;-1.756;110.040;2023-03-01T10:39:18;13.60;;;7.85;;
64907;SDS011;64365;-1.756;110.040;2023-03-01T10:41:54;11.77;;;7.60;;
64907;SDS011;64365;-1.756;110.040;2023-03-01T10:44:43;14.02;;;8.82;;
64907;SDS011;64365;-1.756;110.040;2023-03-01T10:47:15;14.38;;;8.93;;
64907;SDS011;64365;-1.756;110.040;2023-03-01T10:52:44;11.63;;;8.07;;
64907;SDS011;64365;-1.756;110.040;2023-03-01T10:55:25;12.55;;;8.00;;
64907;SDS011;64365;-1.756;110.040;2023-03-01T10:58:06;11.93;;;7.88;;
64907;SDS011;64365;-1.756;110.040;2023-03-01T11:00:45;14.32;;;8.43;;
64907;SDS011;64365;-1.756;110.040;2023-03-01T11:03:13;11.35;;;7.80;;
64907;SDS011;64365;-1.756;110.040;2023-03-01T11:05:50;12.60;;;7.57;;
64907;SDS011;64365;-1.756;110.040;2023-03-01T11:08:29;14.68;;;8.20;;
64907;SDS011;64365;-1.756;110.040;2023-03-01T11:11:13;11.18;;;8.10;;
64907;SDS011;64365;-1.756;110.040;2023-03-01T11:13:50;13.45;;;8.57;;
64907;SDS011;64365;-1.756;110.040;2023-03-01T11:16:26;9.73;;;6.43;;
64907;SDS011;64365;-1.756;110.040;2023-03-01T11:18:56;8.93;;;7.18;;
64907;SDS011;64365;-1.756;110.040;2023-03-01T11:21:24;9.68;;;7.75;;
64907;SDS011;64365;-1.756;110.040;2023-03-01T11:23:52;14.18;;;7.78;;
64907;SDS011;64365;-1.756;110.040;2023-03-01T11:26:20;11.35;;;7.57;;
64907;SDS011;64365;-1.756;110.040;2023-03-01T11:28:48;10.27;;;7.35;;
64907;SDS011;64365;-1.756;110.040;2023-03-01T11:31:20;12.88;;;7.78;;
64907;SDS011;64365;-1.756;110.040;2023-03-01T11:33:50;9.75;;;7.07;;
64907;SDS011;64365;-1.756;110.040;2023-03-01T11:36:24;10.07;;;6.95;;
64907;SDS011;64365;-1.756;110.040;2023-03-01T11:38:57;11.45;;;7.28;;
64907;SDS011;64365;-1.756;110.040;2023-03-01T11:41:31;10.18;;;6.50;;
64907;SDS011;64365;-1.756;110.040;2023-03-01T11:44:03;11.32;;;7.97;;
64907;SDS011;64365;-1.756;110.040;2023-03-01T11:46:49;12.10;;;7.90;;
64907;SDS011;64365;-1.756;110.040;2023-03-01T11:49:34;10.70;;;7.72;;
64907;SDS011;64365;-1.756;110.040;2023-03-01T11:52:23;10.70;;;7.30;;
64907;SDS011;64365;-1.756;110.040;2023-03-01T11:55:02;10.30;;;7.65;;
64907;SDS011;64365;-1.756;110.040;2023-03-01T11:57:48;14.27;;;9.93;;
64907;SDS011;64365;-1.756;110.040;2023-03-01T12:03:28;12.10;;;7.47;;
64907;SDS011;64365;-1.756;110.040;2023-03-01T12:09:01;10.48;;;6.78;;
64907;SDS011;64365;-1.756;110.040;2023-03-01T12:11:41;11.27;;;7.32;;
64907;SDS011;64365;-1.756;110.040;2023-03-01T12:14:23;10.60;;;7.82;;
64907;SDS011;64365;-1.756;110.040;2023-03-01T12:17:14;14.57;;;8.68;;
64907;SDS011;64365;-1.756;110.040;2023-03-01T12:19:57;10.05;;;7.63;;
64907;SDS011;64365;-1.756;110.040;2023-03-01T12:22:37;10.02;;;7.03;;
64907;SDS011;64365;-1.756;110.040;2023-03-01T12:25:16;10.63;;;7.63;;
64907;SDS011;64365;-1.756;110.040;2023-03-01T12:27:56;15.95;;;9.00;;
64907;SDS011;64365;-1.756;110.040;2023-03-01T12:30:42;14.13;;;8.15;;
64907;SDS011;64365;-1.756;110.040;2023-03-01T12:33:22;9.80;;;7.00;;
64907;SDS011;64365;-1.756;110.040;2023-03-01T12:36:05;11.15;;;7.93;;
64907;SDS011;64365;-1.756;110.040;2023-03-01T12:38:40;9.05;;;6.00;;
64907;SDS011;64365;-1.756;110.040;2023-03-01T12:44:10;10.55;;;7.75;;
64907;SDS011;64365;-1.756;110.040;2023-03-01T12:46:46;10.23;;;6.72;;
64907;SDS011;64365;-1.756;110.040;2023-03-01T12:49:28;12.02;;;6.68;;
64907;SDS011;64365;-1.756;110.040;2023-03-01T12:52:00;9.52;;;6.00;;
64907;SDS011;64365;-1.756;110.040;2023-03-01T12:54:30;10.15;;;6.93;;
64907;SDS011;64365;-1.756;110.040;2023-03-01T12:56:59;10.95;;;5.95;;
64907;SDS011;64365;-1.756;110.040;2023-03-01T12:59:36;10.50;;;7.30;;
64907;SDS011;64365;-1.756;110.040;2023-03-01T13:02:09;11.10;;;7.30;;
64907;SDS011;64365;-1.756;110.040;2023-03-01T13:04:51;12.02;;;6.95;;
64907;SDS011;64365;-1.756;110.040;2023-03-01T13:07:33;12.68;;;6.50;;
64907;SDS011;64365;-1.756;110.040;2023-03-01T13:10:10;8.48;;;5.63;;
64907;SDS011;64365;-1.756;110.040;2023-03-01T13:12:49;10.15;;;7.25;;
64907;SDS011;64365;-1.756;110.040;2023-03-01T13:15:25;9.25;;;7.00;;
64907;SDS011;64365;-1.756;110.040;2023-03-01T13:17:58;10.20;;;6.43;;
64907;SDS011;64365;-1.756;110.040;2023-03-01T13:20:30;11.18;;;7.28;;
64907;SDS011;64365;-1.756;110.040;2023-03-01T13:23:03;10.50;;;6.35;;
64907;SDS011;64365;-1.756;110.040;2023-03-01T13:25:33;9.00;;;6.40;;
64907;SDS011;64365;-1.756;110.040;2023-03-01T13:31:06;9.68;;;5.45;;
64907;SDS011;64365;-1.756;110.040;2023-03-01T13:33:40;12.20;;;6.65;;
64907;SDS011;64365;-1.756;110.040;2023-03-01T13:36:11;9.75;;;6.75;;
64907;SDS011;64365;-1.756;110.040;2023-03-01T13:39:01;13.20;;;7.30;;
64907;SDS011;64365;-1.756;110.040;2023-03-01T13:44:17;11.38;;;6.47;;
64907;SDS011;64365;-1.756;110.040;2023-03-01T13:46:51;10.30;;;6.32;;
64907;SDS011;64365;-1.756;110.040;2023-03-01T13:49:21;9.10;;;6.63;;
64907;SDS011;64365;-1.756;110.040;2023-03-01T13:51:50;10.27;;;6.35;;
64907;SDS011;64365;-1.756;110.040;2023-03-01T13:54:19;8.10;;;6.03;;
64907;SDS011;64365;-1.756;110.040;2023-03-01T13:56:51;11.02;;;7.13;;
64907;SDS011;64365;-1.756;110.040;2023-03-01T13:59:19;11.00;;;6.93;;
64907;SDS011;64365;-1.756;110.040;2023-03-01T14:01:51;8.13;;;5.78;;
64907;SDS011;64365;-1.756;110.040;2023-03-01T14:04:22;9.43;;;6.20;;
64907;SDS011;64365;-1.756;110.040;2023-03-01T14:06:50;9.18;;;7.10;;
64907;SDS011;64365;-1.756;110.040;2023-03-01T14:09:17;10.35;;;6.93;;
64907;SDS011;64365;-1.756;110.040;2023-03-01T14:14:53;10.73;;;7.30;;
64907;SDS011;64365;-1.756;110.040;2023-03-01T14:17:38;10.98;;;6.07;;
64907;SDS011;64365;-1.756;110.040;2023-03-01T14:20:14;12.02;;;7.00;;
64907;SDS011;64365;-1.756;110.040;2023-03-01T14:27:59;13.40;;;6.57;;
64907;SDS011;64365;-1.756;110.040;2023-03-01T14:30:31;11.73;;;6.57;;
64907;SDS011;64365;-1.756;110.040;2023-03-01T14:33:00;8.38;;;6.45;;
64907;SDS011;64365;-1.756;110.040;2023-03-01T14:35:32;9.02;;;6.25;;
64907;SDS011;64365;-1.756;110.040;2023-03-01T14:38:00;12.93;;;7.00;;
64907;SDS011;64365;-1.756;110.040;2023-03-01T14:40:29;9.00;;;6.05;;
64907;SDS011;64365;-1.756;110.040;2023-03-01T14:42:58;8.98;;;6.28;;
64907;SDS011;64365;-1.756;110.040;2023-03-01T14:45:27;9.85;;;5.97;;